Time;durP1;ratioP1;P1;durP2;ratioP2;P2;SDS_P1;SDS_P2;PMS_P1;PMS_P2;Temp;Humidity;BMP_temperature;BMP_pressure;BME280_temperature;BME280_humidity;BME280_pressure;Samples;Min_cycle;Max_cycle;Signal;HPM_P1;HPM_P2
2022/12/26 00:01:36;;;;;;;89.03;34.08;;;9.00;99.90;;;;;;5034768;28;20639;-72
2022/12/26 00:04:03;;;;;;;105.88;36.20;;;9.00;99.90;;;;;;5035761;28;20287;-72
2022/12/26 00:06:32;;;;;;;107.57;34.30;;;9.00;99.90;;;;;;5035792;28;20639;-73
2022/12/26 00:09:01;;;;;;;57.72;26.38;;;9.00;99.90;;;;;;5035843;28;20199;-72
2022/12/26 00:11:28;;;;;;;147.20;40.20;;;9.00;99.90;;;;;;5034747;28;20215;-72
2022/12/26 00:13:57;;;;;;;87.72;34.15;;;9.00;99.90;;;;;;5033843;28;20235;-72
2022/12/26 00:16:26;;;;;;;180.00;43.20;;;9.00;99.90;;;;;;5034978;28;20223;-71
2022/12/26 00:18:53;;;;;;;163.50;41.15;;;9.00;99.90;;;;;;5035479;28;20200;-73
2022/12/26 00:21:21;;;;;;;104.93;34.45;;;9.00;99.90;;;;;;5034512;28;20338;-72
2022/12/26 00:23:49;;;;;;;137.18;38.70;;;9.00;99.90;;;;;;5035705;28;20204;-72
2022/12/26 00:26:18;;;;;;;161.00;39.58;;;9.00;99.90;;;;;;5034772;28;20295;-71
2022/12/26 00:28:46;;;;;;;85.15;30.13;;;9.00;99.90;;;;;;5035195;28;20280;-71
2022/12/26 00:31:16;;;;;;;88.70;30.95;;;9.00;99.90;;;;;;5034172;28;20303;-71
2022/12/26 00:33:43;;;;;;;103.28;31.63;;;9.00;99.90;;;;;;5035178;28;20630;-72
2022/12/26 00:36:18;;;;;;;137.35;35.45;;;9.00;99.90;;;;;;5035007;28;20651;-71
2022/12/26 00:38:46;;;;;;;158.00;38.17;;;9.00;99.90;;;;;;5035106;28;20200;-72
2022/12/26 00:41:15;;;;;;;223.68;45.22;;;9.00;99.90;;;;;;5034883;28;20279;-70
2022/12/26 00:43:43;;;;;;;238.88;45.38;;;9.00;99.90;;;;;;5034872;28;20316;-73
2022/12/26 00:46:10;;;;;;;237.60;46.08;;;8.90;99.90;;;;;;5034816;28;20712;-70
2022/12/26 00:48:37;;;;;;;89.32;31.52;;;9.00;99.90;;;;;;5042312;28;20197;-71
2022/12/26 00:51:05;;;;;;;467.70;69.38;;;8.90;99.90;;;;;;5039152;28;20311;-73
2022/12/26 00:53:33;;;;;;;118.82;33.63;;;9.00;99.90;;;;;;5035438;28;20193;-72
2022/12/26 00:56:00;;;;;;;302.90;51.47;;;9.00;99.90;;;;;;5036264;28;20207;-72
2022/12/26 00:58:29;;;;;;;189.63;37.55;;;9.00;99.90;;;;;;5034264;28;20304;-70
2022/12/26 01:01:04;;;;;;;66.10;24.05;;;9.00;99.90;;;;;;5034116;28;20268;-71
2022/12/26 01:03:31;;;;;;;102.78;31.42;;;9.10;99.90;;;;;;5033458;28;20284;-70
2022/12/26 01:05:58;;;;;;;107.88;33.67;;;9.00;99.90;;;;;;5034300;28;20564;-71
2022/12/26 01:08:25;;;;;;;102.57;31.13;;;9.00;99.90;;;;;;5034940;28;20224;-71
2022/12/26 01:10:53;;;;;;;116.75;33.47;;;9.10;99.90;;;;;;5033715;28;20206;-72
2022/12/26 01:13:19;;;;;;;139.35;35.70;;;9.00;99.90;;;;;;5034542;28;20568;-73
2022/12/26 01:15:53;;;;;;;102.65;31.33;;;9.00;99.90;;;;;;5034072;28;20295;-71
2022/12/26 01:18:20;;;;;;;105.05;31.77;;;9.10;99.90;;;;;;5034361;28;20251;-73
2022/12/26 01:20:48;;;;;;;88.78;28.27;;;9.10;99.90;;;;;;5033317;28;20239;-73
2022/12/26 01:23:16;;;;;;;134.13;37.15;;;9.10;99.90;;;;;;5034376;28;20201;-71
2022/12/26 01:25:43;;;;;;;120.60;35.70;;;9.00;99.90;;;;;;5034563;28;20211;-71
2022/12/26 01:28:10;;;;;;;84.80;30.85;;;9.00;99.90;;;;;;5033726;28;20262;-73
2022/12/26 01:30:38;;;;;;;110.18;35.45;;;9.00;99.90;;;;;;5034102;28;20212;-71
2022/12/26 01:33:06;;;;;;;157.30;37.92;;;9.10;99.90;;;;;;5034211;28;20229;-72
2022/12/26 01:35:33;;;;;;;95.88;29.45;;;9.10;99.90;;;;;;5034552;28;20230;-72
2022/12/26 01:38:00;;;;;;;121.00;33.83;;;9.10;99.90;;;;;;5034086;28;20228;-72
2022/12/26 01:40:27;;;;;;;86.18;32.25;;;9.10;99.90;;;;;;5033256;28;20286;-72
2022/12/26 01:42:54;;;;;;;93.22;35.03;;;9.10;99.90;;;;;;5033981;28;20228;-73
2022/12/26 01:45:27;;;;;;;59.67;26.25;;;9.10;99.90;;;;;;5033129;28;20225;-73
2022/12/26 01:47:59;;;;;;;75.95;30.73;;;9.30;99.90;;;;;;5033832;28;20255;-72
2022/12/26 01:50:35;;;;;;;94.03;33.78;;;9.30;99.90;;;;;;5033066;28;20566;-71
2022/12/26 01:53:07;;;;;;;128.15;37.03;;;9.30;99.90;;;;;;5033460;28;20715;-70
2022/12/26 01:55:34;;;;;;;80.05;30.33;;;9.30;99.90;;;;;;5035713;28;20203;-72
2022/12/26 01:58:07;;;;;;;175.70;38.72;;;9.30;99.90;;;;;;5015710;28;20236;-73
2022/12/26 02:00:37;;;;;;;116.70;34.55;;;9.30;99.90;;;;;;5033200;28;20193;-73
2022/12/26 02:05:58;;;;;;;102.68;36.22;;;9.20;99.90;;;;;;4993704;28;20192;-72
2022/12/26 02:08:30;;;;;;;80.05;29.77;;;9.20;99.90;;;;;;5033338;28;20231;-73
2022/12/26 02:11:03;;;;;;;68.97;29.38;;;9.20;99.90;;;;;;5032949;28;20201;-72
2022/12/26 02:13:31;;;;;;;122.68;33.05;;;9.20;99.90;;;;;;5027013;28;20262;-74
2022/12/26 02:15:58;;;;;;;71.05;30.75;;;9.30;99.90;;;;;;5032940;28;20208;-72
2022/12/26 02:18:25;;;;;;;85.28;31.40;;;9.30;99.90;;;;;;5033146;28;20229;-73
2022/12/26 02:21:06;;;;;;;78.88;31.40;;;9.30;99.90;;;;;;5032729;28;20288;-72
2022/12/26 02:23:53;;;;;;;76.13;33.22;;;9.40;99.90;;;;;;5022844;28;20640;-72
2022/12/26 02:27:05;;;;;;;74.88;27.00;;;9.50;99.90;;;;;;5024633;28;20198;-71
2022/12/26 02:30:07;;;;;;;61.95;24.67;;;9.50;99.90;;;;;;5033650;28;20210;-72
2022/12/26 02:33:10;;;;;;;74.45;26.35;;;9.50;99.90;;;;;;5041904;28;20216;-72
2022/12/26 02:35:51;;;;;;;56.63;28.38;;;9.50;99.90;;;;;;5029287;28;20209;-71
2022/12/26 02:38:32;;;;;;;73.88;26.00;;;9.50;99.90;;;;;;5030821;28;20224;-72
2022/12/26 02:41:09;;;;;;;85.38;28.67;;;9.40;99.90;;;;;;5031286;28;20224;-71
2022/12/26 02:43:47;;;;;;;61.90;25.58;;;9.40;99.90;;;;;;5026056;28;20239;-71
2022/12/26 02:49:17;;;;;;;58.95;25.38;;;9.40;99.90;;;;;;5032890;28;20308;-70
2022/12/26 03:14:29;;;;;;;68.03;26.35;;;9.30;99.90;;;;;;5031870;28;20210;-73
2022/12/26 03:17:19;;;;;;;53.35;26.23;;;9.30;99.90;;;;;;5032377;28;20244;-72
2022/12/26 03:20:01;;;;;;;44.78;23.52;;;9.30;99.90;;;;;;5032137;28;20199;-73
2022/12/26 03:22:34;;;;;;;34.65;21.05;;;9.40;99.90;;;;;;5032569;28;20228;-72
2022/12/26 03:27:50;;;;;;;43.33;20.88;;;9.50;99.90;;;;;;5031950;28;20218;-71
2022/12/26 03:33:01;;;;;;;40.10;22.60;;;9.40;99.90;;;;;;5041602;28;20236;-72
2022/12/26 03:35:32;;;;;;;42.72;21.50;;;9.50;99.90;;;;;;5032263;28;20679;-73
2022/12/26 03:38:06;;;;;;;60.75;24.77;;;9.40;99.90;;;;;;5032325;28;20247;-72
2022/12/26 04:20:46;;;;;;;34.03;16.75;;;9.30;99.90;;;;;;5036336;28;20238;-72
2022/12/26 04:45:49;;;;;;;30.17;18.08;;;9.30;99.90;;;;;;5033535;28;20229;-70
2022/12/26 04:51:00;;;;;;;30.00;17.88;;;9.30;99.90;;;;;;5034744;28;20201;-72
2022/12/26 04:53:27;;;;;;;31.05;17.95;;;9.30;99.90;;;;;;5034386;28;20301;-71
2022/12/26 04:56:06;;;;;;;33.75;17.95;;;9.30;99.90;;;;;;5035449;28;20617;-71
2022/12/26 04:58:33;;;;;;;34.47;19.35;;;9.30;99.90;;;;;;5035793;28;20742;-71
2022/12/26 05:10:13;;;;;;;40.55;23.77;;;9.40;99.90;;;;;;4992945;28;20237;-73
2022/12/26 05:12:39;;;;;;;42.38;21.33;;;9.40;99.90;;;;;;4994346;28;20297;-71
2022/12/26 05:15:08;;;;;;;42.42;23.50;;;9.40;99.90;;;;;;4993838;28;20228;-72
2022/12/26 05:29:20;;;;;;;54.65;24.95;;;9.50;99.90;;;;;;5034934;28;20243;-72
2022/12/26 05:31:47;;;;;;;52.75;24.10;;;9.50;99.90;;;;;;5034702;28;20207;-71
2022/12/26 05:34:16;;;;;;;55.28;25.25;;;9.50;99.90;;;;;;5035147;28;20228;-73
2022/12/26 05:36:46;;;;;;;55.50;27.20;;;9.50;99.90;;;;;;5034658;28;20225;-71
2022/12/26 05:39:20;;;;;;;50.33;25.00;;;9.40;99.90;;;;;;5034635;28;20649;-71
2022/12/26 05:41:47;;;;;;;54.78;25.80;;;9.50;99.90;;;;;;5028226;28;20205;-70
2022/12/26 05:44:14;;;;;;;53.78;26.63;;;9.50;99.90;;;;;;5031813;28;20225;-71
2022/12/26 05:46:42;;;;;;;63.95;30.90;;;9.40;99.90;;;;;;5027007;28;20707;-71
2022/12/26 05:49:10;;;;;;;63.83;29.27;;;9.40;99.90;;;;;;5033909;28;20205;-72
2022/12/26 05:51:38;;;;;;;62.08;29.40;;;9.40;99.90;;;;;;5033567;28;20201;-72
2022/12/26 05:54:05;;;;;;;48.47;25.50;;;9.40;99.90;;;;;;5034012;28;20228;-72
2022/12/26 05:56:32;;;;;;;41.75;22.35;;;9.40;99.90;;;;;;5034053;28;20318;-72
2022/12/26 05:59:01;;;;;;;54.20;27.85;;;9.40;99.90;;;;;;5033399;28;20532;-71
2022/12/26 06:01:29;;;;;;;44.90;26.00;;;9.40;99.90;;;;;;5038228;28;20227;-70
2022/12/26 06:04:00;;;;;;;45.25;26.00;;;9.50;99.90;;;;;;5037308;28;20661;-70
2022/12/26 06:06:28;;;;;;;46.72;24.83;;;9.40;99.90;;;;;;5032858;28;20688;-72
2022/12/26 06:08:57;;;;;;;52.53;27.80;;;9.40;99.90;;;;;;5029332;28;20206;-69
2022/12/26 06:11:25;;;;;;;60.88;28.15;;;9.50;99.90;;;;;;5032477;28;20285;-70
2022/12/26 06:13:52;;;;;;;46.72;26.25;;;9.50;99.90;;;;;;5033283;28;20227;-70
2022/12/26 06:16:19;;;;;;;45.58;25.95;;;9.50;99.90;;;;;;5033248;28;20215;-72
2022/12/26 06:18:47;;;;;;;46.63;25.40;;;9.50;99.90;;;;;;5033521;28;20288;-73
2022/12/26 06:21:20;;;;;;;46.35;24.65;;;9.40;99.90;;;;;;5032953;28;20278;-72
2022/12/26 06:23:48;;;;;;;54.53;27.63;;;9.50;99.90;;;;;;5033027;28;20254;-71
2022/12/26 06:26:17;;;;;;;45.97;25.08;;;9.40;99.90;;;;;;5033806;28;20289;-73
2022/12/26 06:28:46;;;;;;;44.10;26.48;;;9.50;99.90;;;;;;5034359;28;20658;-70
2022/12/26 06:31:16;;;;;;;55.60;25.10;;;9.50;99.90;;;;;;5034161;28;20205;-71
2022/12/26 06:33:43;;;;;;;46.35;24.15;;;9.50;99.90;;;;;;5033820;28;20216;-73
2022/12/26 06:36:14;;;;;;;55.47;26.55;;;9.50;99.90;;;;;;5032772;28;20208;-71
2022/12/26 06:38:41;;;;;;;44.47;25.65;;;9.50;99.90;;;;;;5038893;28;20211;-70
2022/12/26 06:41:10;;;;;;;45.45;23.95;;;9.60;99.90;;;;;;5031997;28;20253;-70
2022/12/26 06:43:38;;;;;;;44.40;25.88;;;9.60;99.90;;;;;;5033092;28;20201;-71
2022/12/26 06:46:07;;;;;;;54.40;28.67;;;9.50;99.90;;;;;;5032795;28;20316;-72
2022/12/26 06:48:38;;;;;;;40.25;24.20;;;9.50;99.90;;;;;;5033330;28;20616;-71
2022/12/26 06:51:06;;;;;;;47.10;25.48;;;9.50;99.90;;;;;;5032309;28;20205;-73
2022/12/26 06:53:34;;;;;;;45.42;24.42;;;9.50;99.90;;;;;;5031251;28;20208;-70
2022/12/26 06:56:07;;;;;;;43.92;23.60;;;9.60;99.90;;;;;;5029579;28;20196;-69
2022/12/26 06:58:33;;;;;;;47.70;26.95;;;9.60;99.90;;;;;;5034481;28;20203;-70
2022/12/26 07:01:05;;;;;;;39.15;23.70;;;9.70;99.90;;;;;;5030835;28;20292;-72
2022/12/26 07:03:32;;;;;;;34.33;20.83;;;9.60;99.90;;;;;;5026589;28;20670;-71
2022/12/26 07:06:03;;;;;;;45.33;26.70;;;9.70;99.90;;;;;;5032739;28;20236;-72
2022/12/26 07:08:30;;;;;;;44.65;22.85;;;9.80;99.90;;;;;;5032585;28;20200;-71
2022/12/26 07:10:57;;;;;;;36.25;21.08;;;9.70;99.90;;;;;;5032168;28;20209;-70
2022/12/26 07:13:24;;;;;;;39.05;20.95;;;9.60;99.90;;;;;;5032779;28;20226;-70
2022/12/26 07:15:50;;;;;;;39.03;23.10;;;9.60;99.90;;;;;;5032294;28;20542;-73
2022/12/26 07:18:19;;;;;;;36.80;23.70;;;9.60;99.90;;;;;;5031186;28;20592;-71
2022/12/26 07:20:46;;;;;;;43.80;23.55;;;9.60;99.90;;;;;;5032148;28;20204;-71
2022/12/26 07:23:13;;;;;;;32.50;20.15;;;9.60;99.90;;;;;;5032048;28;20229;-72
2022/12/26 07:25:40;;;;;;;34.42;20.50;;;9.60;99.90;;;;;;5030984;28;20685;-72
2022/12/26 07:28:06;;;;;;;30.85;18.77;;;9.60;99.90;;;;;;5031861;28;20226;-69
2022/12/26 07:30:33;;;;;;;33.80;19.10;;;9.70;99.90;;;;;;5031390;28;20235;-71
2022/12/26 07:33:00;;;;;;;30.08;19.45;;;9.70;99.90;;;;;;5032722;28;20219;-72
2022/12/26 07:35:28;;;;;;;32.47;19.58;;;9.70;99.90;;;;;;5031650;28;20206;-73
2022/12/26 07:37:55;;;;;;;37.00;19.52;;;9.60;99.90;;;;;;5035309;28;20288;-72
2022/12/26 07:40:22;;;;;;;34.53;20.75;;;9.70;99.90;;;;;;5034439;28;20236;-72
2022/12/26 07:42:53;;;;;;;35.47;19.52;;;9.70;99.90;;;;;;5037109;28;20193;-72
2022/12/26 07:45:20;;;;;;;33.80;21.17;;;9.70;99.90;;;;;;5037029;28;20197;-70
2022/12/26 07:47:47;;;;;;;29.52;19.08;;;9.70;99.90;;;;;;5039866;28;20231;-68
2022/12/26 07:50:14;;;;;;;31.38;18.77;;;9.70;99.90;;;;;;5040252;28;20213;-71
2022/12/26 07:52:42;;;;;;;31.77;19.45;;;9.80;99.90;;;;;;5035528;28;20237;-73
2022/12/26 07:55:10;;;;;;;34.30;19.95;;;9.80;99.90;;;;;;5034913;28;20276;-72
2022/12/26 07:57:37;;;;;;;29.70;19.30;;;9.80;99.90;;;;;;5035366;28;20774;-74
2022/12/26 08:00:05;;;;;;;30.92;19.20;;;9.80;99.90;;;;;;5035489;28;20283;-74
2022/12/26 08:02:32;;;;;;;34.45;19.52;;;9.80;99.90;;;;;;5035783;28;20200;-74
2022/12/26 08:04:59;;;;;;;32.75;19.42;;;9.90;99.90;;;;;;5036318;28;20236;-74
2022/12/26 08:07:26;;;;;;;29.50;18.50;;;9.90;99.90;;;;;;5035582;28;20242;-72
2022/12/26 08:09:54;;;;;;;32.47;18.83;;;9.90;99.90;;;;;;5035314;28;20206;-73
2022/12/26 08:12:23;;;;;;;27.25;16.85;;;9.80;99.90;;;;;;5035949;28;20219;-72
2022/12/26 08:14:50;;;;;;;30.67;18.38;;;9.80;99.90;;;;;;5035726;28;20676;-74
2022/12/26 08:17:17;;;;;;;28.30;18.92;;;9.80;99.90;;;;;;5035819;28;20314;-74
2022/12/26 08:19:44;;;;;;;28.13;20.20;;;9.80;99.90;;;;;;5034054;28;20730;-74
2022/12/26 08:22:11;;;;;;;36.15;19.95;;;9.70;99.90;;;;;;5036143;28;20200;-73
2022/12/26 08:24:38;;;;;;;35.38;19.02;;;9.80;99.90;;;;;;5035468;28;20203;-76
2022/12/26 08:27:11;;;;;;;27.05;17.45;;;9.80;99.90;;;;;;5035248;28;20300;-75
2022/12/26 08:29:37;;;;;;;31.00;16.98;;;9.80;99.90;;;;;;5035456;28;20259;-73
2022/12/26 08:32:05;;;;;;;28.30;17.00;;;9.80;99.90;;;;;;5034903;28;20217;-73
2022/12/26 08:34:33;;;;;;;26.67;17.95;;;9.80;99.90;;;;;;5035240;28;20729;-73
2022/12/26 08:37:00;;;;;;;28.27;16.77;;;9.80;99.90;;;;;;5035143;28;20224;-73
2022/12/26 08:39:28;;;;;;;27.00;15.13;;;9.70;99.90;;;;;;5035307;28;20295;-72
2022/12/26 08:41:55;;;;;;;30.58;17.85;;;9.70;99.90;;;;;;5035438;28;20280;-73
2022/12/26 08:44:23;;;;;;;27.38;17.83;;;9.70;99.90;;;;;;5034971;28;20193;-73
2022/12/26 08:46:50;;;;;;;27.90;16.80;;;9.80;99.90;;;;;;5034937;28;20258;-71
2022/12/26 08:49:19;;;;;;;25.15;16.75;;;9.80;99.90;;;;;;5034640;28;20284;-72
2022/12/26 08:51:46;;;;;;;27.23;16.67;;;9.90;99.90;;;;;;5034093;28;20196;-69
2022/12/26 08:54:13;;;;;;;29.80;17.85;;;10.00;99.90;;;;;;5034914;28;20314;-70
2022/12/26 08:56:39;;;;;;;27.25;17.05;;;9.90;99.90;;;;;;5034616;28;20686;-72
2022/12/26 08:59:07;;;;;;;20.75;14.90;;;9.90;99.90;;;;;;5034934;28;20199;-69
2022/12/26 09:01:36;;;;;;;22.67;15.63;;;9.90;99.90;;;;;;5032298;28;20260;-73
2022/12/26 09:04:05;;;;;;;28.45;17.27;;;10.00;99.90;;;;;;5035873;28;20223;-74
2022/12/26 09:06:33;;;;;;;27.40;16.27;;;10.00;99.90;;;;;;5035059;28;20242;-73
2022/12/26 09:09:01;;;;;;;28.00;16.20;;;10.00;99.90;;;;;;5033573;28;20281;-75
2022/12/26 09:11:29;;;;;;;23.75;17.15;;;10.00;99.90;;;;;;5029466;28;20292;-73
2022/12/26 09:13:59;;;;;;;36.13;19.90;;;10.00;99.90;;;;;;5033522;28;20222;-75
2022/12/26 09:16:31;;;;;;;27.92;16.55;;;10.00;99.90;;;;;;5033999;28;20647;-76
2022/12/26 09:19:01;;;;;;;30.42;17.95;;;10.00;99.90;;;;;;5031953;28;20202;-72
2022/12/26 09:21:29;;;;;;;25.77;19.33;;;9.90;99.90;;;;;;5027211;28;20289;-74
2022/12/26 09:23:57;;;;;;;27.00;17.90;;;9.90;99.90;;;;;;5034248;28;20205;-73
2022/12/26 09:26:24;;;;;;;25.85;17.17;;;10.00;99.90;;;;;;5028472;28;20226;-75
2022/12/26 09:28:51;;;;;;;30.48;15.27;;;10.00;99.90;;;;;;5036267;28;20623;-73
2022/12/26 09:31:20;;;;;;;25.55;17.50;;;10.00;99.90;;;;;;5039561;28;20233;-75
2022/12/26 09:33:49;;;;;;;26.52;15.20;;;10.00;99.90;;;;;;5044515;28;20250;-73
2022/12/26 09:36:20;;;;;;;26.90;18.27;;;9.80;99.90;;;;;;5037171;28;20295;-72
2022/12/26 09:38:48;;;;;;;31.23;19.50;;;9.90;99.90;;;;;;5029647;28;20223;-74
2022/12/26 09:41:39;;;;;;;28.23;17.10;;;9.90;99.90;;;;;;5033763;28;20289;-73
2022/12/26 09:44:15;;;;;;;26.63;16.58;;;9.90;99.90;;;;;;5032816;28;20571;-74
2022/12/26 09:46:52;;;;;;;26.45;17.58;;;9.90;99.90;;;;;;5033725;28;20309;-74
2022/12/26 09:49:22;;;;;;;26.38;16.90;;;9.90;99.90;;;;;;5030586;28;20295;-74
2022/12/26 09:51:54;;;;;;;22.52;15.45;;;10.00;99.90;;;;;;5031674;28;20665;-75
2022/12/26 09:54:29;;;;;;;20.50;15.07;;;10.00;99.90;;;;;;5033542;28;20280;-74
2022/12/26 09:56:57;;;;;;;21.55;14.55;;;10.00;99.90;;;;;;5025886;28;20235;-71
2022/12/26 09:59:28;;;;;;;26.08;14.68;;;10.10;99.90;;;;;;5033764;28;20248;-74
2022/12/26 10:01:55;;;;;;;22.85;14.75;;;10.20;99.90;;;;;;5034888;28;20653;-74
2022/12/26 10:04:25;;;;;;;22.67;15.00;;;10.20;99.90;;;;;;5031919;28;20219;-72
2022/12/26 10:07:07;;;;;;;18.88;14.20;;;10.20;99.90;;;;;;5033784;28;20250;-74
2022/12/26 10:09:58;;;;;;;22.73;14.52;;;10.30;99.90;;;;;;5031373;28;20325;-72
2022/12/26 10:15:50;;;;;;;21.60;14.25;;;10.60;99.90;;;;;;5028943;23;20240;-60
2022/12/26 10:18:27;;;;;;;16.52;12.50;;;10.70;99.90;;;;;;5012189;28;20582;-61
2022/12/26 10:21:08;;;;;;;17.45;12.90;;;10.70;99.90;;;;;;5003044;28;20228;-60
2022/12/26 10:23:38;;;;;;;19.27;13.00;;;10.60;99.90;;;;;;5006326;28;21302;-59
2022/12/26 10:26:11;;;;;;;18.58;12.40;;;10.60;99.90;;;;;;5004541;28;20228;-56
2022/12/26 10:28:44;;;;;;;17.33;11.32;;;10.60;99.90;;;;;;5005751;28;20208;-61
2022/12/26 10:31:24;;;;;;;17.48;11.90;;;10.60;99.90;;;;;;5006408;28;20206;-59
2022/12/26 10:33:56;;;;;;;15.77;11.88;;;10.70;99.90;;;;;;5012751;28;20218;-58
2022/12/26 10:36:31;;;;;;;14.82;10.68;;;10.60;99.90;;;;;;5006968;28;20212;-60
2022/12/26 10:39:02;;;;;;;19.00;12.73;;;10.60;99.90;;;;;;5015045;28;20216;-59
2022/12/26 10:41:35;;;;;;;21.05;10.02;;;10.60;99.90;;;;;;4999093;28;20669;-59
2022/12/26 11:07:24;;;;;;;12.95;9.25;;;10.80;99.90;;;;;;5022784;28;20237;-73
2022/12/26 11:09:54;;;;;;;11.07;9.35;;;10.70;99.90;;;;;;5022887;28;20202;-75
2022/12/26 11:12:26;;;;;;;10.27;7.55;;;10.60;99.90;;;;;;5027878;28;20206;-75
2022/12/26 11:14:59;;;;;;;18.98;9.60;;;10.70;99.90;;;;;;5023302;28;20304;-73
2022/12/26 11:17:29;;;;;;;11.15;8.13;;;10.70;99.90;;;;;;5023942;28;20247;-71
2022/12/26 11:20:23;;;;;;;11.50;8.65;;;10.70;99.90;;;;;;5025353;28;20281;-72
2022/12/26 11:22:51;;;;;;;14.68;8.07;;;10.70;99.90;;;;;;5027341;28;20229;-74
2022/12/26 11:25:22;;;;;;;10.13;8.27;;;10.80;99.90;;;;;;5032433;28;20700;-72
2022/12/26 11:27:51;;;;;;;15.77;8.52;;;10.80;99.90;;;;;;5030452;28;20199;-73
2022/12/26 11:30:25;;;;;;;9.57;8.55;;;10.60;99.90;;;;;;5023585;28;20617;-72
2022/12/26 11:33:11;;;;;;;15.63;7.60;;;10.60;99.90;;;;;;5039423;28;20732;-74
2022/12/26 11:35:46;;;;;;;9.77;6.07;;;10.60;99.90;;;;;;5027616;28;20277;-72
2022/12/26 11:38:33;;;;;;;11.38;8.05;;;10.40;99.90;;;;;;5033301;28;20214;-73
2022/12/26 11:44:40;;;;;;;11.32;7.60;;;10.40;99.90;;;;;;5069041;23;20195;-84
2022/12/26 11:53:45;;;;;;;7.90;6.20;;;10.50;99.90;;;;;;5070520;28;20195;-81
2022/12/26 11:56:11;;;;;;;7.45;6.25;;;10.50;99.90;;;;;;5076717;28;20250;-85
2022/12/26 11:58:38;;;;;;;8.55;6.28;;;10.40;99.90;;;;;;5076686;28;20192;-83
2022/12/26 12:01:16;;;;;;;9.60;5.68;;;10.40;99.90;;;;;;5058016;28;20303;-85
2022/12/26 12:03:44;;;;;;;7.80;5.85;;;10.50;99.90;;;;;;5063035;28;20229;-85
2022/12/26 12:06:33;;;;;;;9.30;5.50;;;10.40;99.90;;;;;;5055482;28;20235;-85
2022/12/26 12:09:08;;;;;;;8.25;6.72;;;10.50;99.90;;;;;;5066226;28;20270;-83
2022/12/26 12:11:46;;;;;;;7.93;6.05;;;10.50;99.90;;;;;;5055341;28;20196;-84
2022/12/26 12:14:36;;;;;;;5.38;4.90;;;10.50;99.90;;;;;;5049763;28;20256;-83
2022/12/26 12:17:12;;;;;;;5.63;5.07;;;10.50;99.90;;;;;;5063462;28;20203;-84
2022/12/26 12:20:06;;;;;;;7.32;4.15;;;10.60;99.90;;;;;;5056853;28;20258;-85
2022/12/26 12:22:58;;;;;;;5.55;4.22;;;10.70;99.90;;;;;;5049205;28;20577;-84
2022/12/26 12:25:42;;;;;;;6.03;3.92;;;10.70;99.90;;;;;;5052402;28;20253;-85
2022/12/26 12:28:26;;;;;;;4.40;4.00;;;10.60;99.90;;;;;;5051794;28;20254;-86
2022/12/26 12:31:02;;;;;;;6.00;3.60;;;10.70;99.90;;;;;;5058561;28;20246;-85
2022/12/26 12:33:41;;;;;;;7.95;4.22;;;10.70;99.90;;;;;;5063486;28;20273;-84
2022/12/26 12:36:11;;;;;;;1.70;1.60;;;10.80;99.90;;;;;;5059953;28;20260;-82
2022/12/26 12:38:56;;;;;;;3.33;1.90;;;10.80;99.90;;;;;;5064310;28;20198;-83
2022/12/26 12:41:56;;;;;;;2.78;1.67;;;10.80;99.90;;;;;;5063173;28;20274;-82
2022/12/26 12:44:30;;;;;;;4.50;1.67;;;10.80;99.90;;;;;;5069133;28;20206;-82
2022/12/26 12:47:04;;;;;;;1.80;1.17;;;10.70;99.90;;;;;;5064662;28;20198;-81
2022/12/26 12:49:42;;;;;;;2.28;1.10;;;10.60;99.90;;;;;;5060955;28;20204;-85
2022/12/26 12:52:19;;;;;;;5.22;1.50;;;10.70;99.90;;;;;;5060348;28;20620;-83
2022/12/26 12:55:05;;;;;;;5.18;1.45;;;10.70;99.90;;;;;;5058578;28;20256;-84
2022/12/26 12:57:41;;;;;;;4.93;1.10;;;10.70;99.90;;;;;;5067562;28;20228;-83
2022/12/26 13:00:15;;;;;;;3.50;1.00;;;10.50;99.90;;;;;;5058751;28;20577;-85
2022/12/26 13:02:48;;;;;;;1.60;0.90;;;10.30;99.90;;;;;;5058430;28;20255;-83
2022/12/26 13:05:22;;;;;;;1.60;0.80;;;10.10;99.90;;;;;;5061843;28;20287;-84
2022/12/26 13:07:54;;;;;;;3.30;0.90;;;9.90;99.90;;;;;;5057942;28;20208;-85
2022/12/26 13:10:26;;;;;;;3.03;0.90;;;9.80;99.90;;;;;;5050383;28;20226;-86
2022/12/26 13:12:56;;;;;;;2.53;1.05;;;9.80;99.90;;;;;;5059380;28;20211;-84
2022/12/26 13:15:31;;;;;;;1.10;0.88;;;9.70;99.90;;;;;;5061797;28;20239;-84
2022/12/26 13:18:03;;;;;;;3.13;0.90;;;9.70;99.90;;;;;;5063841;28;20202;-83
2022/12/26 13:20:37;;;;;;;5.75;1.65;;;9.80;99.90;;;;;;5059303;28;20226;-83
2022/12/26 13:26:04;;;;;;;7.57;1.30;;;9.80;99.90;;;;;;5059695;28;20228;-85
2022/12/26 13:28:40;;;;;;;4.68;1.75;;;9.90;99.90;;;;;;5059725;28;20218;-83
2022/12/26 13:31:07;;;;;;;4.65;1.45;;;9.60;99.90;;;;;;5064643;28;20251;-84
2022/12/26 13:34:34;;;;;;;4.72;1.42;;;9.60;99.90;;;;;;5053348;28;20216;-82
2022/12/26 13:44:06;;;;;;;3.10;1.13;;;8.70;99.90;;;;;;4975804;23;20311;-73
2022/12/26 13:46:37;;;;;;;5.68;2.03;;;8.80;99.90;;;;;;5011546;28;20682;-72
2022/12/26 13:49:05;;;;;;;4.60;1.00;;;8.80;99.90;;;;;;5011537;28;20576;-73
2022/12/26 13:51:47;;;;;;;7.72;1.73;;;8.80;99.90;;;;;;5010706;28;20197;-73
2022/12/26 13:54:15;;;;;;;9.48;1.60;;;8.80;99.90;;;;;;5009934;28;20285;-74
2022/12/26 13:57:10;;;;;;;3.28;1.33;;;8.80;99.90;;;;;;5010815;28;20209;-72
2022/12/26 13:59:44;;;;;;;8.57;1.33;;;8.80;99.90;;;;;;5008607;28;20201;-73
2022/12/26 14:02:29;;;;;;;3.17;0.90;;;8.80;99.90;;;;;;5008756;28;20293;-73
2022/12/26 14:05:06;;;;;;;2.83;1.52;;;8.80;99.90;;;;;;5012362;28;20224;-73
2022/12/26 14:07:43;;;;;;;7.43;1.65;;;8.90;99.90;;;;;;5007336;28;20203;-73
2022/12/26 14:10:18;;;;;;;4.50;2.22;;;8.70;99.90;;;;;;5012199;28;20300;-74
2022/12/26 14:13:03;;;;;;;8.93;1.80;;;8.70;99.90;;;;;;5010617;28;20258;-71
2022/12/26 14:15:41;;;;;;;5.35;1.30;;;8.70;99.90;;;;;;4999233;28;20319;-72
2022/12/26 14:18:30;;;;;;;3.33;0.88;;;8.70;99.90;;;;;;5001858;28;20233;-72
2022/12/26 14:21:24;;;;;;;1.83;0.95;;;8.60;99.90;;;;;;5003720;28;20197;-73
2022/12/26 14:23:58;;;;;;;3.38;1.33;;;8.60;99.90;;;;;;5019302;28;20202;-75
2022/12/26 14:26:35;;;;;;;3.60;1.08;;;8.50;99.90;;;;;;5010641;28;20583;-74
2022/12/26 14:29:11;;;;;;;4.13;1.23;;;8.40;99.90;;;;;;5008814;28;20212;-73
2022/12/26 14:31:47;;;;;;;6.55;1.15;;;8.40;99.90;;;;;;5001754;28;20854;-72
2022/12/26 14:34:25;;;;;;;4.80;1.10;;;8.30;99.90;;;;;;5009755;28;20221;-72
2022/12/26 14:36:59;;;;;;;3.28;0.82;;;8.30;99.90;;;;;;5006378;28;20292;-74
2022/12/26 14:39:37;;;;;;;7.30;1.20;;;8.30;99.90;;;;;;5013592;28;20258;-74
2022/12/26 14:45:13;;;;;;;8.23;1.90;;;8.30;99.90;;;;;;5011269;28;20687;-75
2022/12/26 14:47:44;;;;;;;3.97;1.30;;;8.30;99.90;;;;;;5009724;28;20260;-73
2022/12/26 14:50:36;;;;;;;4.53;1.90;;;8.20;99.90;;;;;;5023196;28;20197;-71
2022/12/26 14:53:33;;;;;;;5.55;1.23;;;8.30;99.90;;;;;;5013560;28;20197;-73
2022/12/26 14:56:02;;;;;;;4.32;1.50;;;8.30;99.90;;;;;;5008014;28;20858;-72
2022/12/26 14:58:41;;;;;;;4.45;1.80;;;8.20;99.90;;;;;;5009858;28;20215;-75
2022/12/26 15:01:44;;;;;;;7.60;2.08;;;8.20;99.90;;;;;;5012042;28;20638;-73
2022/12/26 15:04:36;;;;;;;8.15;1.98;;;8.20;99.90;;;;;;5012551;28;20721;-72
2022/12/26 15:07:38;;;;;;;5.00;2.17;;;8.20;99.90;;;;;;5003300;28;20725;-73
2022/12/26 15:10:44;;;;;;;7.10;2.10;;;8.10;99.90;;;;;;5002650;28;20208;-74
2022/12/26 15:13:43;;;;;;;5.53;1.70;;;8.10;99.90;;;;;;5002754;28;20240;-74
2022/12/26 15:16:28;;;;;;;12.25;2.33;;;8.10;99.90;;;;;;5001037;28;20220;-73
2022/12/26 15:19:38;;;;;;;7.68;2.35;;;8.00;99.90;;;;;;5005601;28;20608;-75
2022/12/26 15:22:25;;;;;;;7.25;2.08;;;7.90;99.90;;;;;;5000549;28;20673;-74
2022/12/26 15:25:42;;;;;;;6.85;2.40;;;7.90;99.90;;;;;;5013698;28;20212;-75
2022/12/26 15:28:40;;;;;;;11.88;2.78;;;7.80;99.90;;;;;;5006872;28;20709;-76
2022/12/26 15:31:26;;;;;;;17.95;2.80;;;7.70;99.90;;;;;;5018182;28;20613;-74
2022/12/26 15:33:59;;;;;;;26.95;2.92;;;7.80;99.90;;;;;;5008804;28;20288;-75
2022/12/26 15:36:42;;;;;;;5.22;3.08;;;7.70;99.90;;;;;;5010927;28;20231;-77
2022/12/26 15:39:23;;;;;;;13.38;2.80;;;7.70;99.90;;;;;;5008112;28;20307;-75
2022/12/26 15:41:58;;;;;;;11.77;2.72;;;7.70;99.90;;;;;;5004016;28;20237;-76
2022/12/26 15:44:33;;;;;;;10.68;2.60;;;7.60;99.90;;;;;;5008470;28;20211;-74
2022/12/26 15:47:14;;;;;;;7.65;1.73;;;7.60;99.90;;;;;;5006817;28;20206;-76
2022/12/26 15:50:07;;;;;;;5.55;1.90;;;7.50;99.90;;;;;;5010919;28;20196;-76
2022/12/26 15:52:47;;;;;;;6.85;2.17;;;7.50;99.90;;;;;;5003160;28;20221;-76
2022/12/26 15:55:39;;;;;;;11.13;1.70;;;7.40;99.90;;;;;;5005949;28;20320;-77
2022/12/26 15:58:18;;;;;;;14.60;2.67;;;7.20;99.90;;;;;;4994497;28;20244;-75
2022/12/26 16:00:50;;;;;;;8.82;3.40;;;7.20;99.90;;;;;;5008134;28;20275;-74